sensor_id;sensor_type;location;lat;lon;timestamp;P1;durP1;ratioP1;P2;durP2;ratioP2
76765;SDS011;65707;52.362;6.588;2023-06-14T00:00:02;8.25;;;3.30;;
76765;SDS011;65707;52.362;6.588;2023-06-14T00:02:30;12.23;;;3.22;;
76765;SDS011;65707;52.362;6.588;2023-06-14T00:04:56;9.25;;;3.35;;
76765;SDS011;65707;52.362;6.588;2023-06-14T00:07:33;9.38;;;3.47;;
76765;SDS011;65707;52.362;6.588;2023-06-14T00:10:00;9.30;;;2.92;;
76765;SDS011;65707;52.362;6.588;2023-06-14T00:12:29;10.25;;;3.30;;
76765;SDS011;65707;52.362;6.588;2023-06-14T00:14:55;13.25;;;3.10;;
76765;SDS011;65707;52.362;6.588;2023-06-14T00:17:22;9.57;;;3.40;;
76765;SDS011;65707;52.362;6.588;2023-06-14T00:19:49;9.40;;;3.33;;
76765;SDS011;65707;52.362;6.588;2023-06-14T00:22:16;11.68;;;3.55;;
76765;SDS011;65707;52.362;6.588;2023-06-14T00:24:42;8.73;;;3.22;;
76765;SDS011;65707;52.362;6.588;2023-06-14T00:27:09;8.50;;;3.50;;
76765;SDS011;65707;52.362;6.588;2023-06-14T00:29:37;9.45;;;3.60;;
76765;SDS011;65707;52.362;6.588;2023-06-14T00:32:04;8.60;;;3.22;;
76765;SDS011;65707;52.362;6.588;2023-06-14T00:34:31;10.30;;;3.35;;
76765;SDS011;65707;52.362;6.588;2023-06-14T00:36:58;9.38;;;3.15;;
76765;SDS011;65707;52.362;6.588;2023-06-14T00:39:24;9.68;;;2.85;;
76765;SDS011;65707;52.362;6.588;2023-06-14T00:41:51;9.00;;;2.97;;
76765;SDS011;65707;52.362;6.588;2023-06-14T00:44:17;11.25;;;2.92;;
76765;SDS011;65707;52.362;6.588;2023-06-14T00:46:46;7.65;;;2.70;;
76765;SDS011;65707;52.362;6.588;2023-06-14T00:49:12;11.07;;;3.22;;
76765;SDS011;65707;52.362;6.588;2023-06-14T00:51:40;9.30;;;3.17;;
76765;SDS011;65707;52.362;6.588;2023-06-14T00:54:07;10.05;;;2.80;;
76765;SDS011;65707;52.362;6.588;2023-06-14T00:56:35;7.32;;;2.67;;
76765;SDS011;65707;52.362;6.588;2023-06-14T00:59:01;8.43;;;2.80;;
76765;SDS011;65707;52.362;6.588;2023-06-14T01:01:28;9.43;;;2.90;;
76765;SDS011;65707;52.362;6.588;2023-06-14T01:03:59;11.15;;;2.70;;
76765;SDS011;65707;52.362;6.588;2023-06-14T01:06:27;10.30;;;3.05;;
76765;SDS011;65707;52.362;6.588;2023-06-14T01:09:01;6.40;;;2.53;;
76765;SDS011;65707;52.362;6.588;2023-06-14T01:11:37;9.90;;;2.63;;
76765;SDS011;65707;52.362;6.588;2023-06-14T01:14:10;9.05;;;2.72;;
76765;SDS011;65707;52.362;6.588;2023-06-14T01:16:38;8.02;;;2.40;;
76765;SDS011;65707;52.362;6.588;2023-06-14T01:19:08;8.52;;;2.67;;
76765;SDS011;65707;52.362;6.588;2023-06-14T01:21:38;7.60;;;2.90;;
76765;SDS011;65707;52.362;6.588;2023-06-14T01:24:08;10.38;;;3.17;;
76765;SDS011;65707;52.362;6.588;2023-06-14T01:26:36;9.85;;;3.17;;
76765;SDS011;65707;52.362;6.588;2023-06-14T01:29:10;9.02;;;3.08;;
76765;SDS011;65707;52.362;6.588;2023-06-14T01:31:42;11.45;;;3.00;;
76765;SDS011;65707;52.362;6.588;2023-06-14T01:34:10;9.93;;;3.33;;
76765;SDS011;65707;52.362;6.588;2023-06-14T01:36:37;9.45;;;3.40;;
76765;SDS011;65707;52.362;6.588;2023-06-14T01:39:08;11.60;;;3.83;;
76765;SDS011;65707;52.362;6.588;2023-06-14T01:41:37;15.38;;;4.70;;
76765;SDS011;65707;52.362;6.588;2023-06-14T01:44:05;12.27;;;4.32;;
76765;SDS011;65707;52.362;6.588;2023-06-14T01:46:35;9.50;;;3.67;;
76765;SDS011;65707;52.362;6.588;2023-06-14T01:49:05;13.73;;;3.72;;
76765;SDS011;65707;52.362;6.588;2023-06-14T01:51:32;10.02;;;3.80;;
76765;SDS011;65707;52.362;6.588;2023-06-14T01:53:58;8.95;;;3.17;;
76765;SDS011;65707;52.362;6.588;2023-06-14T01:56:26;11.32;;;3.40;;
76765;SDS011;65707;52.362;6.588;2023-06-14T01:58:56;12.20;;;3.70;;
76765;SDS011;65707;52.362;6.588;2023-06-14T02:01:23;10.98;;;3.60;;
76765;SDS011;65707;52.362;6.588;2023-06-14T02:03:49;9.13;;;3.55;;
76765;SDS011;65707;52.362;6.588;2023-06-14T02:06:20;12.25;;;3.00;;
76765;SDS011;65707;52.362;6.588;2023-06-14T02:08:49;8.43;;;2.75;;
76765;SDS011;65707;52.362;6.588;2023-06-14T02:11:21;6.85;;;2.70;;
76765;SDS011;65707;52.362;6.588;2023-06-14T02:13:49;9.25;;;2.97;;
76765;SDS011;65707;52.362;6.588;2023-06-14T02:16:15;10.23;;;3.25;;
76765;SDS011;65707;52.362;6.588;2023-06-14T02:18:42;8.45;;;3.20;;
76765;SDS011;65707;52.362;6.588;2023-06-14T02:21:09;11.77;;;2.90;;
76765;SDS011;65707;52.362;6.588;2023-06-14T02:23:35;8.20;;;2.83;;
76765;SDS011;65707;52.362;6.588;2023-06-14T02:26:02;9.13;;;3.03;;
76765;SDS011;65707;52.362;6.588;2023-06-14T02:28:29;8.02;;;2.67;;
76765;SDS011;65707;52.362;6.588;2023-06-14T02:30:56;7.07;;;2.78;;
76765;SDS011;65707;52.362;6.588;2023-06-14T02:33:23;8.02;;;2.80;;
76765;SDS011;65707;52.362;6.588;2023-06-14T02:35:50;7.40;;;3.08;;
76765;SDS011;65707;52.362;6.588;2023-06-14T02:38:17;9.73;;;3.03;;
76765;SDS011;65707;52.362;6.588;2023-06-14T02:40:44;8.32;;;2.95;;
76765;SDS011;65707;52.362;6.588;2023-06-14T02:43:11;10.65;;;3.05;;
76765;SDS011;65707;52.362;6.588;2023-06-14T02:45:38;9.20;;;2.85;;
76765;SDS011;65707;52.362;6.588;2023-06-14T02:48:06;8.80;;;3.03;;
76765;SDS011;65707;52.362;6.588;2023-06-14T02:50:33;7.30;;;2.60;;
76765;SDS011;65707;52.362;6.588;2023-06-14T02:52:59;8.77;;;2.67;;
76765;SDS011;65707;52.362;6.588;2023-06-14T02:55:27;8.68;;;2.83;;
76765;SDS011;65707;52.362;6.588;2023-06-14T02:57:55;9.77;;;2.85;;
76765;SDS011;65707;52.362;6.588;2023-06-14T03:00:21;7.70;;;2.70;;
76765;SDS011;65707;52.362;6.588;2023-06-14T03:02:48;8.68;;;2.90;;
76765;SDS011;65707;52.362;6.588;2023-06-14T03:05:17;7.20;;;2.25;;
76765;SDS011;65707;52.362;6.588;2023-06-14T03:07:46;6.70;;;2.33;;
76765;SDS011;65707;52.362;6.588;2023-06-14T03:10:12;7.70;;;2.72;;
76765;SDS011;65707;52.362;6.588;2023-06-14T03:12:39;8.25;;;2.53;;
76765;SDS011;65707;52.362;6.588;2023-06-14T03:15:06;8.57;;;2.50;;
76765;SDS011;65707;52.362;6.588;2023-06-14T03:17:34;6.40;;;2.20;;
76765;SDS011;65707;52.362;6.588;2023-06-14T03:20:04;7.88;;;2.58;;
76765;SDS011;65707;52.362;6.588;2023-06-14T03:22:34;8.73;;;2.60;;
76765;SDS011;65707;52.362;6.588;2023-06-14T03:25:01;6.65;;;2.15;;
76765;SDS011;65707;52.362;6.588;2023-06-14T03:27:29;6.65;;;2.10;;
76765;SDS011;65707;52.362;6.588;2023-06-14T03:29:56;7.47;;;2.45;;
76765;SDS011;65707;52.362;6.588;2023-06-14T03:32:22;7.78;;;2.65;;
76765;SDS011;65707;52.362;6.588;2023-06-14T03:34:49;6.53;;;2.38;;
76765;SDS011;65707;52.362;6.588;2023-06-14T03:37:15;9.23;;;2.22;;
76765;SDS011;65707;52.362;6.588;2023-06-14T03:39:43;8.65;;;2.30;;
76765;SDS011;65707;52.362;6.588;2023-06-14T03:42:12;8.23;;;2.10;;
76765;SDS011;65707;52.362;6.588;2023-06-14T03:44:38;6.82;;;2.15;;
76765;SDS011;65707;52.362;6.588;2023-06-14T03:47:05;7.47;;;1.95;;
76765;SDS011;65707;52.362;6.588;2023-06-14T03:49:32;7.95;;;2.08;;
76765;SDS011;65707;52.362;6.588;2023-06-14T03:51:59;7.90;;;2.40;;
76765;SDS011;65707;52.362;6.588;2023-06-14T03:54:25;7.88;;;2.20;;
76765;SDS011;65707;52.362;6.588;2023-06-14T03:56:53;6.03;;;2.30;;
76765;SDS011;65707;52.362;6.588;2023-06-14T03:59:21;6.15;;;1.98;;
76765;SDS011;65707;52.362;6.588;2023-06-14T04:01:51;6.13;;;2.22;;
76765;SDS011;65707;52.362;6.588;2023-06-14T04:04:18;5.10;;;2.00;;
76765;SDS011;65707;52.362;6.588;2023-06-14T04:06:46;8.25;;;2.60;;
76765;SDS011;65707;52.362;6.588;2023-06-14T04:09:13;6.57;;;2.03;;
76765;SDS011;65707;52.362;6.588;2023-06-14T04:11:39;6.65;;;2.38;;
76765;SDS011;65707;52.362;6.588;2023-06-14T04:14:07;7.68;;;2.70;;
76765;SDS011;65707;52.362;6.588;2023-06-14T04:16:34;7.07;;;2.72;;
76765;SDS011;65707;52.362;6.588;2023-06-14T04:19:00;6.93;;;2.30;;
76765;SDS011;65707;52.362;6.588;2023-06-14T04:21:27;7.10;;;2.38;;
76765;SDS011;65707;52.362;6.588;2023-06-14T04:23:54;7.70;;;2.15;;
76765;SDS011;65707;52.362;6.588;2023-06-14T04:26:21;10.73;;;2.47;;
76765;SDS011;65707;52.362;6.588;2023-06-14T04:28:54;6.90;;;2.53;;
76765;SDS011;65707;52.362;6.588;2023-06-14T04:31:23;10.48;;;2.60;;
76765;SDS011;65707;52.362;6.588;2023-06-14T04:33:50;8.63;;;2.20;;
76765;SDS011;65707;52.362;6.588;2023-06-14T04:36:18;7.60;;;2.25;;
76765;SDS011;65707;52.362;6.588;2023-06-14T04:38:46;6.28;;;2.40;;
76765;SDS011;65707;52.362;6.588;2023-06-14T04:41:14;7.72;;;2.80;;
76765;SDS011;65707;52.362;6.588;2023-06-14T04:43:41;9.02;;;2.17;;
76765;SDS011;65707;52.362;6.588;2023-06-14T04:46:08;6.47;;;2.20;;
76765;SDS011;65707;52.362;6.588;2023-06-14T04:48:37;7.40;;;2.10;;
76765;SDS011;65707;52.362;6.588;2023-06-14T04:51:06;6.85;;;2.17;;
76765;SDS011;65707;52.362;6.588;2023-06-14T04:53:32;8.10;;;2.30;;
76765;SDS011;65707;52.362;6.588;2023-06-14T04:55:59;7.20;;;2.28;;
76765;SDS011;65707;52.362;6.588;2023-06-14T04:58:28;7.40;;;2.35;;
76765;SDS011;65707;52.362;6.588;2023-06-14T05:00:55;6.32;;;2.30;;
76765;SDS011;65707;52.362;6.588;2023-06-14T05:03:24;7.00;;;2.70;;
76765;SDS011;65707;52.362;6.588;2023-06-14T05:05:53;13.85;;;2.80;;
76765;SDS011;65707;52.362;6.588;2023-06-14T05:08:22;6.80;;;2.55;;
76765;SDS011;65707;52.362;6.588;2023-06-14T05:10:49;6.43;;;2.13;;
76765;SDS011;65707;52.362;6.588;2023-06-14T05:13:18;8.95;;;2.85;;
76765;SDS011;65707;52.362;6.588;2023-06-14T05:15:47;6.38;;;2.40;;
76765;SDS011;65707;52.362;6.588;2023-06-14T05:18:14;6.88;;;2.50;;
76765;SDS011;65707;52.362;6.588;2023-06-14T05:20:40;10.40;;;2.70;;
76765;SDS011;65707;52.362;6.588;2023-06-14T05:23:08;6.95;;;2.22;;
76765;SDS011;65707;52.362;6.588;2023-06-14T05:25:39;6.65;;;2.20;;
76765;SDS011;65707;52.362;6.588;2023-06-14T05:28:07;11.27;;;2.88;;
76765;SDS011;65707;52.362;6.588;2023-06-14T05:30:34;7.95;;;2.38;;
76765;SDS011;65707;52.362;6.588;2023-06-14T05:33:00;8.88;;;2.72;;
76765;SDS011;65707;52.362;6.588;2023-06-14T05:35:27;6.22;;;2.30;;
76765;SDS011;65707;52.362;6.588;2023-06-14T05:37:54;7.70;;;2.50;;
76765;SDS011;65707;52.362;6.588;2023-06-14T05:40:22;6.82;;;2.70;;
76765;SDS011;65707;52.362;6.588;2023-06-14T05:42:49;6.22;;;2.50;;
76765;SDS011;65707;52.362;6.588;2023-06-14T05:45:18;6.53;;;2.22;;
76765;SDS011;65707;52.362;6.588;2023-06-14T05:47:44;6.03;;;2.05;;
76765;SDS011;65707;52.362;6.588;2023-06-14T05:50:11;5.85;;;2.03;;
76765;SDS011;65707;52.362;6.588;2023-06-14T05:52:38;8.13;;;2.25;;
76765;SDS011;65707;52.362;6.588;2023-06-14T05:55:04;9.15;;;2.22;;
76765;SDS011;65707;52.362;6.588;2023-06-14T05:57:33;6.88;;;2.60;;
76765;SDS011;65707;52.362;6.588;2023-06-14T06:00:00;8.50;;;2.35;;
76765;SDS011;65707;52.362;6.588;2023-06-14T06:02:30;5.70;;;2.15;;
76765;SDS011;65707;52.362;6.588;2023-06-14T06:04:57;8.95;;;2.30;;
76765;SDS011;65707;52.362;6.588;2023-06-14T06:07:27;7.88;;;1.88;;
76765;SDS011;65707;52.362;6.588;2023-06-14T06:09:54;8.10;;;2.30;;
76765;SDS011;65707;52.362;6.588;2023-06-14T06:12:22;8.93;;;2.50;;
76765;SDS011;65707;52.362;6.588;2023-06-14T06:14:52;6.95;;;2.13;;
76765;SDS011;65707;52.362;6.588;2023-06-14T06:17:18;6.68;;;2.10;;
76765;SDS011;65707;52.362;6.588;2023-06-14T06:19:45;5.85;;;1.75;;
76765;SDS011;65707;52.362;6.588;2023-06-14T06:22:11;9.52;;;2.08;;
76765;SDS011;65707;52.362;6.588;2023-06-14T06:24:38;4.93;;;2.10;;
76765;SDS011;65707;52.362;6.588;2023-06-14T06:27:05;6.25;;;1.95;;
76765;SDS011;65707;52.362;6.588;2023-06-14T06:29:33;10.93;;;2.40;;
76765;SDS011;65707;52.362;6.588;2023-06-14T06:32:01;6.38;;;2.15;;
76765;SDS011;65707;52.362;6.588;2023-06-14T06:34:28;7.43;;;2.08;;
76765;SDS011;65707;52.362;6.588;2023-06-14T06:36:55;10.20;;;2.25;;
76765;SDS011;65707;52.362;6.588;2023-06-14T06:39:21;8.27;;;2.40;;
76765;SDS011;65707;52.362;6.588;2023-06-14T06:41:48;7.05;;;2.38;;
76765;SDS011;65707;52.362;6.588;2023-06-14T06:44:14;7.53;;;2.17;;
76765;SDS011;65707;52.362;6.588;2023-06-14T06:46:41;8.15;;;1.90;;
76765;SDS011;65707;52.362;6.588;2023-06-14T06:49:09;7.13;;;2.05;;
76765;SDS011;65707;52.362;6.588;2023-06-14T06:51:36;6.97;;;1.65;;
76765;SDS011;65707;52.362;6.588;2023-06-14T06:54:03;6.95;;;1.92;;
76765;SDS011;65707;52.362;6.588;2023-06-14T06:56:31;5.53;;;1.80;;
76765;SDS011;65707;52.362;6.588;2023-06-14T06:58:57;7.88;;;1.88;;
76765;SDS011;65707;52.362;6.588;2023-06-14T07:01:24;4.80;;;1.80;;
76765;SDS011;65707;52.362;6.588;2023-06-14T07:03:51;6.50;;;1.98;;
76765;SDS011;65707;52.362;6.588;2023-06-14T07:06:19;7.63;;;1.92;;
76765;SDS011;65707;52.362;6.588;2023-06-14T07:08:45;5.88;;;2.00;;
76765;SDS011;65707;52.362;6.588;2023-06-14T07:11:13;7.53;;;2.20;;
76765;SDS011;65707;52.362;6.588;2023-06-14T07:13:40;6.80;;;1.80;;
76765;SDS011;65707;52.362;6.588;2023-06-14T07:16:06;8.85;;;1.90;;
76765;SDS011;65707;52.362;6.588;2023-06-14T07:18:33;7.50;;;1.92;;
76765;SDS011;65707;52.362;6.588;2023-06-14T07:21:00;6.70;;;2.03;;
76765;SDS011;65707;52.362;6.588;2023-06-14T07:23:28;9.73;;;2.33;;
76765;SDS011;65707;52.362;6.588;2023-06-14T07:25:55;6.30;;;2.13;;
76765;SDS011;65707;52.362;6.588;2023-06-14T07:28:21;7.78;;;1.90;;
76765;SDS011;65707;52.362;6.588;2023-06-14T07:30:48;5.47;;;1.90;;
76765;SDS011;65707;52.362;6.588;2023-06-14T07:33:14;6.03;;;1.70;;
76765;SDS011;65707;52.362;6.588;2023-06-14T07:35:41;6.07;;;1.80;;
76765;SDS011;65707;52.362;6.588;2023-06-14T07:38:08;6.90;;;1.80;;
76765;SDS011;65707;52.362;6.588;2023-06-14T07:40:36;6.38;;;1.80;;
76765;SDS011;65707;52.362;6.588;2023-06-14T07:43:02;7.18;;;1.88;;
76765;SDS011;65707;52.362;6.588;2023-06-14T07:45:29;7.50;;;2.35;;
76765;SDS011;65707;52.362;6.588;2023-06-14T07:47:56;5.60;;;1.80;;
76765;SDS011;65707;52.362;6.588;2023-06-14T07:50:27;5.35;;;1.88;;
76765;SDS011;65707;52.362;6.588;2023-06-14T07:52:54;7.68;;;2.08;;
76765;SDS011;65707;52.362;6.588;2023-06-14T07:55:20;5.80;;;1.83;;
76765;SDS011;65707;52.362;6.588;2023-06-14T07:57:48;9.50;;;1.60;;
76765;SDS011;65707;52.362;6.588;2023-06-14T08:00:15;5.13;;;1.50;;
76765;SDS011;65707;52.362;6.588;2023-06-14T08:02:43;6.43;;;1.98;;
76765;SDS011;65707;52.362;6.588;2023-06-14T08:05:10;9.18;;;1.80;;
76765;SDS011;65707;52.362;6.588;2023-06-14T08:07:37;5.68;;;1.60;;
76765;SDS011;65707;52.362;6.588;2023-06-14T08:10:04;10.98;;;1.70;;
76765;SDS011;65707;52.362;6.588;2023-06-14T08:12:31;5.90;;;1.63;;
76765;SDS011;65707;52.362;6.588;2023-06-14T08:14:59;8.30;;;1.55;;
76765;SDS011;65707;52.362;6.588;2023-06-14T08:17:25;6.53;;;1.80;;
76765;SDS011;65707;52.362;6.588;2023-06-14T08:19:52;6.05;;;1.65;;
76765;SDS011;65707;52.362;6.588;2023-06-14T08:22:22;5.93;;;1.67;;
76765;SDS011;65707;52.362;6.588;2023-06-14T08:24:49;5.07;;;1.67;;
76765;SDS011;65707;52.362;6.588;2023-06-14T08:27:16;7.25;;;1.55;;
76765;SDS011;65707;52.362;6.588;2023-06-14T08:29:43;6.65;;;1.83;;
76765;SDS011;65707;52.362;6.588;2023-06-14T08:32:13;8.20;;;1.60;;
76765;SDS011;65707;52.362;6.588;2023-06-14T08:34:39;5.72;;;1.55;;
76765;SDS011;65707;52.362;6.588;2023-06-14T08:37:06;5.00;;;1.73;;
76765;SDS011;65707;52.362;6.588;2023-06-14T08:39:32;7.95;;;1.95;;
76765;SDS011;65707;52.362;6.588;2023-06-14T08:41:59;5.93;;;1.77;;
76765;SDS011;65707;52.362;6.588;2023-06-14T08:44:27;5.50;;;1.60;;
76765;SDS011;65707;52.362;6.588;2023-06-14T08:46:55;4.70;;;1.60;;
76765;SDS011;65707;52.362;6.588;2023-06-14T08:49:23;7.20;;;1.63;;
76765;SDS011;65707;52.362;6.588;2023-06-14T08:51:52;7.22;;;1.73;;
76765;SDS011;65707;52.362;6.588;2023-06-14T08:54:24;5.10;;;1.90;;
76765;SDS011;65707;52.362;6.588;2023-06-14T08:56:52;5.95;;;1.73;;
76765;SDS011;65707;52.362;6.588;2023-06-14T08:59:22;6.47;;;1.70;;
76765;SDS011;65707;52.362;6.588;2023-06-14T09:01:51;5.90;;;1.50;;
76765;SDS011;65707;52.362;6.588;2023-06-14T09:04:19;7.85;;;1.55;;
76765;SDS011;65707;52.362;6.588;2023-06-14T09:06:48;6.35;;;1.50;;
76765;SDS011;65707;52.362;6.588;2023-06-14T09:09:17;5.68;;;2.10;;
76765;SDS011;65707;52.362;6.588;2023-06-14T09:11:44;5.30;;;1.63;;
76765;SDS011;65707;52.362;6.588;2023-06-14T09:14:12;6.25;;;1.77;;
76765;SDS011;65707;52.362;6.588;2023-06-14T09:16:38;6.03;;;1.80;;
76765;SDS011;65707;52.362;6.588;2023-06-14T09:19:05;4.60;;;2.00;;
76765;SDS011;65707;52.362;6.588;2023-06-14T09:21:33;5.35;;;1.80;;
76765;SDS011;65707;52.362;6.588;2023-06-14T09:24:02;5.93;;;1.80;;
76765;SDS011;65707;52.362;6.588;2023-06-14T09:26:29;5.07;;;2.03;;
76765;SDS011;65707;52.362;6.588;2023-06-14T09:28:56;7.75;;;1.63;;
76765;SDS011;65707;52.362;6.588;2023-06-14T09:31:31;8.93;;;2.15;;
76765;SDS011;65707;52.362;6.588;2023-06-14T09:33:58;5.43;;;1.67;;
76765;SDS011;65707;52.362;6.588;2023-06-14T09:36:27;7.70;;;1.75;;
76765;SDS011;65707;52.362;6.588;2023-06-14T09:38:58;4.90;;;1.73;;
76765;SDS011;65707;52.362;6.588;2023-06-14T09:41:33;5.10;;;1.70;;
76765;SDS011;65707;52.362;6.588;2023-06-14T09:44:00;7.05;;;1.88;;
76765;SDS011;65707;52.362;6.588;2023-06-14T09:46:29;7.22;;;2.00;;
76765;SDS011;65707;52.362;6.588;2023-06-14T09:48:56;7.70;;;2.00;;
76765;SDS011;65707;52.362;6.588;2023-06-14T09:51:23;7.13;;;1.77;;
76765;SDS011;65707;52.362;6.588;2023-06-14T09:53:51;6.07;;;1.63;;
76765;SDS011;65707;52.362;6.588;2023-06-14T09:56:19;6.05;;;1.95;;
76765;SDS011;65707;52.362;6.588;2023-06-14T09:58:51;5.63;;;1.83;;
76765;SDS011;65707;52.362;6.588;2023-06-14T10:01:21;8.02;;;1.88;;
76765;SDS011;65707;52.362;6.588;2023-06-14T10:08:43;6.28;;;1.80;;
76765;SDS011;65707;52.362;6.588;2023-06-14T10:11:11;7.80;;;1.90;;
76765;SDS011;65707;52.362;6.588;2023-06-14T10:13:39;6.43;;;1.90;;
76765;SDS011;65707;52.362;6.588;2023-06-14T10:16:10;5.90;;;1.88;;
76765;SDS011;65707;52.362;6.588;2023-06-14T10:18:43;4.72;;;1.73;;
76765;SDS011;65707;52.362;6.588;2023-06-14T10:21:16;7.60;;;1.85;;
76765;SDS011;65707;52.362;6.588;2023-06-14T10:23:51;6.40;;;2.10;;
76765;SDS011;65707;52.362;6.588;2023-06-14T10:26:19;7.03;;;1.85;;
76765;SDS011;65707;52.362;6.588;2023-06-14T10:28:55;7.97;;;1.90;;
76765;SDS011;65707;52.362;6.588;2023-06-14T10:31:26;5.75;;;2.00;;
76765;SDS011;65707;52.362;6.588;2023-06-14T10:34:07;5.80;;;1.67;;
76765;SDS011;65707;52.362;6.588;2023-06-14T10:36:33;11.48;;;1.92;;
76765;SDS011;65707;52.362;6.588;2023-06-14T10:39:01;6.95;;;1.90;;
76765;SDS011;65707;52.362;6.588;2023-06-14T10:41:31;6.93;;;2.00;;
76765;SDS011;65707;52.362;6.588;2023-06-14T10:47:07;8.88;;;2.13;;
76765;SDS011;65707;52.362;6.588;2023-06-14T10:49:36;9.23;;;2.10;;
76765;SDS011;65707;52.362;6.588;2023-06-14T10:52:10;5.30;;;1.52;;
76765;SDS011;65707;52.362;6.588;2023-06-14T10:57:21;7.60;;;1.83;;
76765;SDS011;65707;52.362;6.588;2023-06-14T10:59:48;6.13;;;2.03;;
76765;SDS011;65707;52.362;6.588;2023-06-14T11:02:20;5.70;;;2.17;;
76765;SDS011;65707;52.362;6.588;2023-06-14T11:05:10;5.43;;;1.77;;
76765;SDS011;65707;52.362;6.588;2023-06-14T11:07:43;5.90;;;1.65;;
76765;SDS011;65707;52.362;6.588;2023-06-14T11:10:25;4.53;;;1.60;;
76765;SDS011;65707;52.362;6.588;2023-06-14T11:15:29;4.90;;;1.80;;
76765;SDS011;65707;52.362;6.588;2023-06-14T11:17:57;6.28;;;1.63;;
76765;SDS011;65707;52.362;6.588;2023-06-14T11:20:26;8.13;;;2.03;;
76765;SDS011;65707;52.362;6.588;2023-06-14T11:22:53;5.82;;;2.08;;
76765;SDS011;65707;52.362;6.588;2023-06-14T11:25:20;6.15;;;1.70;;
76765;SDS011;65707;52.362;6.588;2023-06-14T11:27:48;5.22;;;1.77;;
76765;SDS011;65707;52.362;6.588;2023-06-14T11:30:15;5.68;;;1.70;;
76765;SDS011;65707;52.362;6.588;2023-06-14T11:32:45;11.40;;;2.08;;
76765;SDS011;65707;52.362;6.588;2023-06-14T11:35:14;4.53;;;1.40;;
76765;SDS011;65707;52.362;6.588;2023-06-14T11:37:41;6.30;;;1.67;;
76765;SDS011;65707;52.362;6.588;2023-06-14T11:40:09;7.35;;;1.77;;
76765;SDS011;65707;52.362;6.588;2023-06-14T11:42:37;5.95;;;1.90;;
76765;SDS011;65707;52.362;6.588;2023-06-14T11:45:07;6.10;;;1.95;;
76765;SDS011;65707;52.362;6.588;2023-06-14T11:47:35;6.95;;;1.80;;
76765;SDS011;65707;52.362;6.588;2023-06-14T11:50:02;8.18;;;1.80;;
76765;SDS011;65707;52.362;6.588;2023-06-14T11:52:31;7.43;;;1.55;;
76765;SDS011;65707;52.362;6.588;2023-06-14T11:54:58;6.28;;;1.90;;
76765;SDS011;65707;52.362;6.588;2023-06-14T11:57:25;5.15;;;1.67;;
76765;SDS011;65707;52.362;6.588;2023-06-14T11:59:51;7.50;;;1.70;;
76765;SDS011;65707;52.362;6.588;2023-06-14T12:02:18;5.05;;;1.50;;
76765;SDS011;65707;52.362;6.588;2023-06-14T12:04:46;6.22;;;1.80;;
76765;SDS011;65707;52.362;6.588;2023-06-14T12:07:14;6.43;;;1.75;;
76765;SDS011;65707;52.362;6.588;2023-06-14T12:10:02;6.30;;;1.88;;
76765;SDS011;65707;52.362;6.588;2023-06-14T12:12:34;6.75;;;1.60;;
76765;SDS011;65707;52.362;6.588;2023-06-14T12:15:02;8.40;;;1.90;;
76765;SDS011;65707;52.362;6.588;2023-06-14T12:17:31;5.47;;;1.63;;
76765;SDS011;65707;52.362;6.588;2023-06-14T12:19:58;5.07;;;1.80;;
76765;SDS011;65707;52.362;6.588;2023-06-14T12:22:25;6.43;;;1.50;;
76765;SDS011;65707;52.362;6.588;2023-06-14T12:24:56;4.60;;;1.45;;
76765;SDS011;65707;52.362;6.588;2023-06-14T12:27:23;7.55;;;1.73;;
76765;SDS011;65707;52.362;6.588;2023-06-14T12:29:58;6.25;;;1.85;;
76765;SDS011;65707;52.362;6.588;2023-06-14T12:32:26;7.30;;;1.95;;
76765;SDS011;65707;52.362;6.588;2023-06-14T12:34:52;5.38;;;1.58;;
76765;SDS011;65707;52.362;6.588;2023-06-14T12:37:19;6.30;;;2.08;;
76765;SDS011;65707;52.362;6.588;2023-06-14T12:39:46;6.82;;;2.47;;
76765;SDS011;65707;52.362;6.588;2023-06-14T12:42:13;7.65;;;1.80;;
76765;SDS011;65707;52.362;6.588;2023-06-14T12:44:40;5.97;;;1.60;;
76765;SDS011;65707;52.362;6.588;2023-06-14T12:47:07;6.75;;;1.73;;
76765;SDS011;65707;52.362;6.588;2023-06-14T12:49:34;8.65;;;1.45;;
76765;SDS011;65707;52.362;6.588;2023-06-14T12:52:01;8.60;;;1.63;;
76765;SDS011;65707;52.362;6.588;2023-06-14T12:54:27;6.00;;;1.90;;
76765;SDS011;65707;52.362;6.588;2023-06-14T12:56:55;8.23;;;2.15;;
76765;SDS011;65707;52.362;6.588;2023-06-14T12:59:23;5.15;;;1.60;;
76765;SDS011;65707;52.362;6.588;2023-06-14T13:01:50;4.38;;;1.30;;
76765;SDS011;65707;52.362;6.588;2023-06-14T13:04:18;4.30;;;1.40;;
76765;SDS011;65707;52.362;6.588;2023-06-14T13:06:45;6.63;;;1.70;;
76765;SDS011;65707;52.362;6.588;2023-06-14T13:09:12;5.60;;;1.70;;
76765;SDS011;65707;52.362;6.588;2023-06-14T13:11:40;4.40;;;1.50;;
76765;SDS011;65707;52.362;6.588;2023-06-14T13:14:10;9.02;;;1.70;;
76765;SDS011;65707;52.362;6.588;2023-06-14T13:16:38;5.82;;;1.65;;
76765;SDS011;65707;52.362;6.588;2023-06-14T13:19:05;6.63;;;1.35;;
76765;SDS011;65707;52.362;6.588;2023-06-14T13:21:31;7.13;;;1.70;;
76765;SDS011;65707;52.362;6.588;2023-06-14T13:23:58;7.47;;;1.50;;
76765;SDS011;65707;52.362;6.588;2023-06-14T13:26:25;5.97;;;1.50;;
76765;SDS011;65707;52.362;6.588;2023-06-14T13:28:52;5.28;;;1.40;;
76765;SDS011;65707;52.362;6.588;2023-06-14T13:31:18;5.50;;;1.30;;
76765;SDS011;65707;52.362;6.588;2023-06-14T13:33:46;5.07;;;1.50;;
76765;SDS011;65707;52.362;6.588;2023-06-14T13:36:13;5.35;;;1.52;;
76765;SDS011;65707;52.362;6.588;2023-06-14T13:38:40;4.65;;;1.67;;
76765;SDS011;65707;52.362;6.588;2023-06-14T13:41:06;5.97;;;2.17;;
76765;SDS011;65707;52.362;6.588;2023-06-14T13:43:33;5.90;;;1.33;;
76765;SDS011;65707;52.362;6.588;2023-06-14T13:45:59;6.82;;;1.55;;
76765;SDS011;65707;52.362;6.588;2023-06-14T13:48:26;8.82;;;1.50;;
76765;SDS011;65707;52.362;6.588;2023-06-14T13:50:54;6.45;;;1.73;;
76765;SDS011;65707;52.362;6.588;2023-06-14T13:53:22;7.10;;;1.45;;
76765;SDS011;65707;52.362;6.588;2023-06-14T13:55:48;5.88;;;1.33;;
76765;SDS011;65707;52.362;6.588;2023-06-14T13:58:15;7.25;;;1.52;;
76765;SDS011;65707;52.362;6.588;2023-06-14T14:00:42;4.88;;;1.58;;
76765;SDS011;65707;52.362;6.588;2023-06-14T14:03:09;5.22;;;1.50;;
76765;SDS011;65707;52.362;6.588;2023-06-14T14:05:36;4.35;;;1.25;;
76765;SDS011;65707;52.362;6.588;2023-06-14T14:08:04;4.03;;;1.40;;
76765;SDS011;65707;52.362;6.588;2023-06-14T14:12:58;4.60;;;1.30;;
76765;SDS011;65707;52.362;6.588;2023-06-14T14:15:24;6.20;;;1.73;;
76765;SDS011;65707;52.362;6.588;2023-06-14T14:17:51;4.63;;;1.20;;
76765;SDS011;65707;52.362;6.588;2023-06-14T14:20:19;6.32;;;1.58;;
76765;SDS011;65707;52.362;6.588;2023-06-14T14:22:45;5.90;;;1.50;;
76765;SDS011;65707;52.362;6.588;2023-06-14T14:25:13;4.43;;;1.38;;
76765;SDS011;65707;52.362;6.588;2023-06-14T14:27:40;7.63;;;1.63;;
76765;SDS011;65707;52.362;6.588;2023-06-14T14:30:07;7.32;;;1.73;;
76765;SDS011;65707;52.362;6.588;2023-06-14T14:32:34;5.07;;;1.45;;
76765;SDS011;65707;52.362;6.588;2023-06-14T14:35:00;7.70;;;1.52;;
76765;SDS011;65707;52.362;6.588;2023-06-14T14:37:27;6.32;;;1.20;;
76765;SDS011;65707;52.362;6.588;2023-06-14T14:39:53;6.57;;;1.40;;
76765;SDS011;65707;52.362;6.588;2023-06-14T14:42:21;5.15;;;1.60;;
76765;SDS011;65707;52.362;6.588;2023-06-14T14:44:48;5.05;;;1.80;;
76765;SDS011;65707;52.362;6.588;2023-06-14T14:47:15;8.18;;;1.70;;
76765;SDS011;65707;52.362;6.588;2023-06-14T14:49:42;5.10;;;1.50;;
76765;SDS011;65707;52.362;6.588;2023-06-14T14:52:08;7.18;;;1.50;;
76765;SDS011;65707;52.362;6.588;2023-06-14T14:54:35;5.22;;;1.38;;
76765;SDS011;65707;52.362;6.588;2023-06-14T14:57:02;5.50;;;1.70;;
76765;SDS011;65707;52.362;6.588;2023-06-14T14:59:30;5.85;;;1.50;;
76765;SDS011;65707;52.362;6.588;2023-06-14T15:01:59;5.93;;;1.70;;
76765;SDS011;65707;52.362;6.588;2023-06-14T15:04:25;7.32;;;1.50;;